createdAt,value
2022-08-22T00:01:31.493Z,21.51
2022-08-22T00:02:45.442Z,23.22
2022-08-22T00:02:53.437Z,23.11
2022-08-22T00:03:01.119Z,21.64
2022-08-22T00:03:03.387Z,21.85
2022-08-22T00:03:08.826Z,21.68
2022-08-22T00:03:09.862Z,21.66
2022-08-22T00:04:19.507Z,21.49
2022-08-22T00:07:00.948Z,21.49
2022-08-22T00:10:06.639Z,21.51
2022-08-22T00:12:44.694Z,21.48
2022-08-22T00:15:42.123Z,21.49
2022-08-22T00:18:36.490Z,21.43
2022-08-22T00:21:12.555Z,21.46
2022-08-22T00:23:44.116Z,21.42
2022-08-22T00:26:43.321Z,21.44
2022-08-22T00:29:17.815Z,21.43
2022-08-22T00:32:01.832Z,21.42
2022-08-22T00:35:17.874Z,21.44
2022-08-22T00:38:00.304Z,21.46
2022-08-22T00:40:30.478Z,21.44
2022-08-22T00:43:07.448Z,21.46
2022-08-22T00:45:46.505Z,21.41
2022-08-22T00:48:32.039Z,21.41
2022-08-22T00:51:03.267Z,21.43
2022-08-22T00:53:54.895Z,21.38
2022-08-22T00:56:51.045Z,21.38
2022-08-22T00:59:52.285Z,21.31
2022-08-22T01:02:28.003Z,21.33
2022-08-22T01:05:17.300Z,21.37
2022-08-22T01:07:59.533Z,21.35
2022-08-22T01:10:48.093Z,21.29
2022-08-22T01:13:31.026Z,21.24
2022-08-22T01:16:18.134Z,21.18
2022-08-22T01:19:10.123Z,21.08
2022-08-22T01:21:55.938Z,20.99
2022-08-22T01:25:21.469Z,20.90
2022-08-22T01:28:05.573Z,20.82
2022-08-22T01:30:53.227Z,20.78
2022-08-22T01:34:01.007Z,20.73
2022-08-22T01:36:31.017Z,20.68
2022-08-22T01:39:03.915Z,20.68
2022-08-22T01:42:03.339Z,20.66
2022-08-22T01:44:37.825Z,20.63
2022-08-22T01:47:12.763Z,20.59
2022-08-22T01:50:03.139Z,20.61
2022-08-22T01:52:47.947Z,20.61
2022-08-22T01:55:32.146Z,20.59
2022-08-22T01:58:17.137Z,20.68
2022-08-22T02:01:13.785Z,20.71
2022-08-22T02:04:30.345Z,20.69
2022-08-22T02:07:11.735Z,20.74
2022-08-22T02:09:52.373Z,20.73
2022-08-22T02:13:05.207Z,20.79
2022-08-22T02:16:18.889Z,20.80
2022-08-22T02:19:05.304Z,20.80
2022-08-22T02:21:44.252Z,20.81
2022-08-22T02:24:45.141Z,20.85
2022-08-22T02:27:37.265Z,20.82
2022-08-22T02:30:07.277Z,20.78
2022-08-22T02:32:40.313Z,20.76
2022-08-22T02:35:14.348Z,20.76
2022-08-22T02:38:00.270Z,20.76
2022-08-22T02:40:35.237Z,20.76
2022-08-22T02:43:13.579Z,20.79
2022-08-22T02:45:54.188Z,20.80
2022-08-22T02:48:32.664Z,20.83
2022-08-22T02:51:10.872Z,20.81
2022-08-22T02:54:09.201Z,20.83
2022-08-22T02:57:01.118Z,20.86
2022-08-22T02:59:56.988Z,20.83
2022-08-22T03:02:40.120Z,20.83
2022-08-22T03:05:26.461Z,20.85
2022-08-22T03:08:01.809Z,20.83
2022-08-22T03:10:46.472Z,20.86
2022-08-22T03:13:24.099Z,20.90
2022-08-22T03:16:04.775Z,20.88
2022-08-22T03:19:14.949Z,20.88
2022-08-22T03:21:58.518Z,20.87
2022-08-22T03:24:50.386Z,20.87
2022-08-22T03:27:47.180Z,20.89
2022-08-22T03:30:42.463Z,20.88
2022-08-22T03:33:24.898Z,20.95
2022-08-22T03:36:18.063Z,20.92
2022-08-22T03:39:16.714Z,20.91
2022-08-22T03:41:53.904Z,20.94
2022-08-22T03:44:45.532Z,20.96
2022-08-22T03:47:28.557Z,21.01
2022-08-22T03:50:14.942Z,21.06
2022-08-22T03:53:18.459Z,21.10
2022-08-22T03:56:05.268Z,21.12
2022-08-22T03:59:00.093Z,21.17
2022-08-22T04:01:45.041Z,21.20
2022-08-22T04:04:32.187Z,21.29
2022-08-22T04:07:36.770Z,21.33
2022-08-22T04:10:44.883Z,21.39
2022-08-22T04:13:56.358Z,21.40
2022-08-22T04:16:38.323Z,21.40
2022-08-22T04:19:35.134Z,21.40
2022-08-22T04:22:35.678Z,21.43
2022-08-22T04:25:17.052Z,21.48
2022-08-22T04:27:55.980Z,21.51
2022-08-22T04:30:46.851Z,21.44
2022-08-22T04:33:21.194Z,21.48
2022-08-22T04:36:13.765Z,21.47
2022-08-22T04:38:51.835Z,21.51
2022-08-22T04:41:26.002Z,21.53
2022-08-22T04:44:17.435Z,21.47
2022-08-22T04:46:57.630Z,21.43
2022-08-22T04:49:56.975Z,21.53
2022-08-22T04:52:52.354Z,21.62
2022-08-22T04:55:46.837Z,21.65
2022-08-22T04:58:32.430Z,21.71
2022-08-22T05:01:25.779Z,21.61
2022-08-22T05:04:01.447Z,21.61
2022-08-22T05:06:34.450Z,21.81
2022-08-22T05:09:08.003Z,22.00
2022-08-22T05:11:36.956Z,22.39
2022-08-22T05:14:13.781Z,22.62
2022-08-22T05:16:44.064Z,22.72
2022-08-22T05:19:27.078Z,22.94
2022-08-22T05:21:57.641Z,23.04
2022-08-22T05:24:48.606Z,23.05
2022-08-22T05:27:26.337Z,23.19
2022-08-22T05:30:13.603Z,23.12
2022-08-22T05:33:11.023Z,23.05
2022-08-22T05:35:44.953Z,23.14
2022-08-22T05:38:20.484Z,23.56
2022-08-22T05:40:54.388Z,23.84
2022-08-22T05:43:25.531Z,24.02
2022-08-22T05:45:58.161Z,24.11
2022-08-22T05:48:39.042Z,24.27
2022-08-22T05:51:21.589Z,24.34
2022-08-22T05:53:56.484Z,24.12
2022-08-22T05:56:34.460Z,24.26
2022-08-22T05:59:23.313Z,24.37
2022-08-22T06:01:59.504Z,24.43
2022-08-22T06:04:39.174Z,24.18
2022-08-22T06:07:22.054Z,24.19
2022-08-22T06:09:49.016Z,24.29
2022-08-22T06:12:27.829Z,24.50
2022-08-22T06:15:12.073Z,24.66
2022-08-22T06:17:47.388Z,24.65
2022-08-22T06:20:28.677Z,24.65
2022-08-22T06:23:02.497Z,24.42
2022-08-22T06:25:35.646Z,24.16
2022-08-22T06:28:13.860Z,24.34
2022-08-22T06:30:45.651Z,24.44
2022-08-22T06:33:19.365Z,24.64
2022-08-22T06:36:11.234Z,24.67
2022-08-22T06:39:32.266Z,24.81
2022-08-22T06:42:38.377Z,24.84
2022-08-22T06:45:16.997Z,24.58
2022-08-22T06:47:53.549Z,24.39
2022-08-22T06:50:34.704Z,24.35
2022-08-22T06:53:07.642Z,24.43
2022-08-22T06:55:38.567Z,24.41
2022-08-22T06:58:12.351Z,24.80
2022-08-22T07:00:42.725Z,25.62
2022-08-22T07:03:30.272Z,26.55
2022-08-22T07:05:57.951Z,28.01
2022-08-22T07:08:27.116Z,29.32
2022-08-22T07:11:17.652Z,30.34
2022-08-22T07:13:53.921Z,31.03
2022-08-22T07:16:30.122Z,30.81
2022-08-22T07:18:58.845Z,30.99
2022-08-22T07:21:36.200Z,31.85
2022-08-22T07:24:03.979Z,32.72
2022-08-22T07:26:49.114Z,31.92
2022-08-22T07:29:34.473Z,32.68
2022-08-22T07:32:19.026Z,32.73
2022-08-22T07:35:10.574Z,32.94
2022-08-22T07:38:00.114Z,33.46
2022-08-22T07:40:32.813Z,33.50
2022-08-22T07:43:31.035Z,33.44
2022-08-22T07:45:59.904Z,34.43
2022-08-22T07:48:59.269Z,35.03
2022-08-22T07:51:46.911Z,35.48
2022-08-22T07:54:21.769Z,36.01
2022-08-22T07:57:07.331Z,34.79
2022-08-22T07:59:39.330Z,35.27
2022-08-22T08:02:11.717Z,35.97
2022-08-22T08:04:41.277Z,35.46
2022-08-22T08:07:11.559Z,35.75
2022-08-22T08:09:46.832Z,36.09
2022-08-22T08:12:15.955Z,36.72
2022-08-22T08:14:50.249Z,37.89
2022-08-22T08:17:23.745Z,38.63
2022-08-22T08:19:52.042Z,38.80
2022-08-22T08:22:25.879Z,39.50
2022-08-22T08:24:56.490Z,39.23
2022-08-22T08:28:00.791Z,39.45
2022-08-22T08:30:46.971Z,40.87
2022-08-22T08:33:26.144Z,40.67
2022-08-22T08:36:06.850Z,39.74
2022-08-22T08:39:02.005Z,40.52
2022-08-22T08:41:50.085Z,40.63
2022-08-22T08:44:48.725Z,40.76
2022-08-22T08:47:33.036Z,40.77
2022-08-22T08:50:17.694Z,41.10
2022-08-22T08:53:06.450Z,40.28
2022-08-22T08:56:02.995Z,40.36
2022-08-22T08:58:48.802Z,39.06
2022-08-22T09:01:27.500Z,36.23
2022-08-22T09:04:32.463Z,36.22
2022-08-22T09:07:08.748Z,35.93
2022-08-22T09:09:35.816Z,36.29
2022-08-22T09:12:30.279Z,36.01
2022-08-22T09:15:37.372Z,36.29
2022-08-22T09:18:32.081Z,36.00
2022-08-22T09:21:30.663Z,35.52
2022-08-22T09:24:09.835Z,35.48
2022-08-22T09:26:52.801Z,34.52
2022-08-22T09:29:51.691Z,34.85
2022-08-22T09:32:42.386Z,34.90
2022-08-22T09:35:23.101Z,35.69
2022-08-22T09:37:53.578Z,35.46
2022-08-22T09:40:37.656Z,37.14
2022-08-22T09:43:14.318Z,37.40
2022-08-22T09:45:51.405Z,37.02
2022-08-22T09:48:40.108Z,37.62
2022-08-22T09:51:31.482Z,36.95
2022-08-22T09:54:31.557Z,36.98
2022-08-22T09:57:02.424Z,36.97
2022-08-22T09:59:42.830Z,38.62
2022-08-22T10:02:28.623Z,37.95
2022-08-22T10:05:40.402Z,39.37
2022-08-22T10:08:33.687Z,39.62
2022-08-22T10:11:28.839Z,39.54
2022-08-22T10:14:01.907Z,39.06
2022-08-22T10:17:00.077Z,40.14
2022-08-22T10:19:33.161Z,40.09
2022-08-22T10:22:19.183Z,39.08
2022-08-22T10:25:07.749Z,38.52
2022-08-22T10:27:40.486Z,38.52
2022-08-22T10:30:16.798Z,38.23
2022-08-22T10:32:47.583Z,37.92
2022-08-22T10:35:17.730Z,37.72
2022-08-22T10:37:51.890Z,37.17
2022-08-22T10:40:29.228Z,38.19
2022-08-22T10:43:02.486Z,38.91
2022-08-22T10:45:36.802Z,39.03
2022-08-22T10:48:47.267Z,38.91
2022-08-22T10:51:20.366Z,38.55
2022-08-22T10:54:14.939Z,38.55
2022-08-22T10:56:56.109Z,38.54
2022-08-22T11:00:00.968Z,39.22
2022-08-22T11:02:35.811Z,39.01
2022-08-22T11:05:45.122Z,38.49
2022-08-22T11:08:17.256Z,38.85
2022-08-22T11:11:19.818Z,37.26
2022-08-22T11:14:18.766Z,37.02
2022-08-22T11:16:55.130Z,36.36
2022-08-22T11:19:45.357Z,37.28
2022-08-22T11:22:33.920Z,37.83
2022-08-22T11:25:38.888Z,37.59
2022-08-22T11:28:43.894Z,38.18
2022-08-22T11:31:22.813Z,38.55
2022-08-22T11:34:03.625Z,37.22
2022-08-22T11:36:54.686Z,38.29
2022-08-22T11:39:55.387Z,37.16
2022-08-22T11:42:32.556Z,37.24
2022-08-22T11:45:01.906Z,37.29
2022-08-22T11:47:37.358Z,37.73
2022-08-22T11:50:19.476Z,38.14
2022-08-22T11:53:07.644Z,37.68
2022-08-22T11:55:49.785Z,37.35
2022-08-22T11:58:22.870Z,36.55
2022-08-22T12:01:03.897Z,35.91
2022-08-22T12:03:33.797Z,35.10
2022-08-22T12:06:50.477Z,34.24
2022-08-22T12:09:42.399Z,34.13
2022-08-22T12:12:21.513Z,33.33
2022-08-22T12:15:09.435Z,32.98
2022-08-22T12:18:19.934Z,32.93
2022-08-22T12:21:14.265Z,32.63
2022-08-22T12:26:31.069Z,31.97
2022-08-22T12:29:33.457Z,31.72
2022-08-22T12:32:02.103Z,31.69
2022-08-22T12:35:13.440Z,31.55
2022-08-22T12:37:52.309Z,31.56
2022-08-22T12:40:38.734Z,31.65
2022-08-22T12:43:39.907Z,31.70
2022-08-22T12:46:46.565Z,31.06
2022-08-22T12:49:31.584Z,31.21
2022-08-22T12:52:31.022Z,31.44
2022-08-22T12:55:03.203Z,31.25
2022-08-22T12:58:21.603Z,31.43
2022-08-22T13:00:50.392Z,31.37
2022-08-22T13:03:24.010Z,31.27
2022-08-22T13:05:59.866Z,30.92
2022-08-22T13:08:35.654Z,31.07
2022-08-22T13:11:15.188Z,31.20
2022-08-22T13:13:56.628Z,31.34
2022-08-22T13:16:26.312Z,31.30
2022-08-22T13:18:58.080Z,31.23
2022-08-22T13:21:36.087Z,30.85
2022-08-22T13:24:52.391Z,30.96
2022-08-22T13:27:50.639Z,30.64
2022-08-22T13:30:29.041Z,30.85
2022-08-22T13:33:11.364Z,30.89
2022-08-22T13:35:51.693Z,31.06
2022-08-22T13:38:46.247Z,31.14
2022-08-22T13:41:21.781Z,31.01
2022-08-22T13:44:04.923Z,31.00
2022-08-22T13:46:35.489Z,30.78
2022-08-22T13:49:07.177Z,30.77
2022-08-22T13:52:03.826Z,30.75
2022-08-22T13:54:55.312Z,30.71
2022-08-22T13:57:34.975Z,30.47
2022-08-22T14:00:11.840Z,30.28
2022-08-22T14:03:00.139Z,30.35
2022-08-22T14:05:33.385Z,30.42
2022-08-22T14:08:18.773Z,30.41
2022-08-22T14:11:20.838Z,30.40
2022-08-22T14:14:08.264Z,30.34
2022-08-22T14:16:56.885Z,30.31
2022-08-22T14:19:48.990Z,30.27
2022-08-22T14:22:31.680Z,30.09
2022-08-22T14:25:02.655Z,30.10
2022-08-22T14:27:33.047Z,30.09
2022-08-22T14:30:14.832Z,29.98
2022-08-22T14:32:51.630Z,29.94
2022-08-22T14:35:35.271Z,29.77
2022-08-22T14:38:17.775Z,29.76
2022-08-22T14:40:46.755Z,29.61
2022-08-22T14:43:40.346Z,29.63
2022-08-22T14:46:12.736Z,29.62
2022-08-22T14:49:05.627Z,29.50
2022-08-22T14:51:33.792Z,29.48
2022-08-22T14:54:21.529Z,29.40
2022-08-22T14:56:52.029Z,29.42
2022-08-22T14:59:37.360Z,29.39
2022-08-22T15:02:23.182Z,29.32
2022-08-22T15:04:53.868Z,29.28
2022-08-22T15:07:25.211Z,29.24
2022-08-22T15:09:56.422Z,29.19
2022-08-22T15:12:34.093Z,29.11
2022-08-22T15:15:06.772Z,29.09
2022-08-22T15:17:44.309Z,29.07
2022-08-22T15:20:25.940Z,28.99
2022-08-22T15:23:03.478Z,28.92
2022-08-22T15:25:43.243Z,28.81
2022-08-22T15:28:17.215Z,28.75
2022-08-22T15:31:03.434Z,28.70
2022-08-22T15:33:39.179Z,28.72
2022-08-22T15:36:09.085Z,28.66
2022-08-22T15:38:42.095Z,28.62
2022-08-22T15:41:36.646Z,28.51
2022-08-22T15:44:30.708Z,28.51
2022-08-22T15:47:01.065Z,28.47
2022-08-22T15:49:31.213Z,28.47
2022-08-22T15:52:01.051Z,28.35
2022-08-22T15:54:38.254Z,28.34
2022-08-22T15:57:22.788Z,28.27
2022-08-22T16:00:01.784Z,28.24
2022-08-22T16:02:42.647Z,28.11
2022-08-22T16:05:09.540Z,28.10
2022-08-22T16:07:42.234Z,28.08
2022-08-22T16:10:24.444Z,28.04
2022-08-22T16:13:12.736Z,28.03
2022-08-22T16:15:52.688Z,27.96
2022-08-22T16:18:39.346Z,27.93
2022-08-22T16:21:21.225Z,27.83
2022-08-22T16:23:51.400Z,27.79
2022-08-22T16:26:38.803Z,27.71
2022-08-22T16:29:18.278Z,27.58
2022-08-22T16:31:48.165Z,27.54
2022-08-22T16:34:18.247Z,27.47
2022-08-22T16:36:51.131Z,27.39
2022-08-22T16:39:24.019Z,27.34
2022-08-22T16:42:15.930Z,27.30
2022-08-22T16:44:50.001Z,27.30
2022-08-22T16:47:42.542Z,27.29
2022-08-22T16:50:41.132Z,27.27
2022-08-22T16:53:30.136Z,27.19
2022-08-22T16:56:06.483Z,27.05
2022-08-22T16:58:56.867Z,26.96
2022-08-22T17:01:50.730Z,26.83
2022-08-22T17:04:41.162Z,26.71
2022-08-22T17:07:11.456Z,26.60
2022-08-22T17:10:11.642Z,26.54
2022-08-22T17:12:58.050Z,26.45
2022-08-22T17:15:45.398Z,26.40
2022-08-22T17:18:21.164Z,26.39
2022-08-22T17:21:03.340Z,26.29
2022-08-22T17:24:31.544Z,26.29
2022-08-22T17:27:08.337Z,26.24
2022-08-22T17:29:35.244Z,26.21
2022-08-22T17:32:35.888Z,26.18
2022-08-22T17:35:16.061Z,26.20
2022-08-22T17:38:18.139Z,26.21
2022-08-22T17:41:18.223Z,26.22
2022-08-22T17:43:58.253Z,26.23
2022-08-22T17:46:41.403Z,26.21
2022-08-22T17:49:11.387Z,26.21
2022-08-22T17:51:55.089Z,26.15
2022-08-22T17:54:48.425Z,26.07
2022-08-22T17:57:29.863Z,26.04
2022-08-22T18:00:08.289Z,25.98
2022-08-22T18:02:43.517Z,25.99
2022-08-22T18:05:25.129Z,25.94
2022-08-22T18:08:04.163Z,25.91
2022-08-22T18:10:45.695Z,25.85
2022-08-22T18:13:36.599Z,25.79
2022-08-22T18:16:42.124Z,25.75
2022-08-22T18:19:24.418Z,25.70
2022-08-22T18:22:20.638Z,25.70
2022-08-22T18:25:08.737Z,25.67
2022-08-22T18:27:44.480Z,25.66
2022-08-22T18:30:11.332Z,25.57
2022-08-22T18:32:43.171Z,25.58
2022-08-22T18:35:34.548Z,25.56
2022-08-22T18:38:19.094Z,25.49
2022-08-22T18:41:02.636Z,25.49
2022-08-22T18:43:45.182Z,25.50
2022-08-22T18:46:37.939Z,25.50
2022-08-22T18:49:33.624Z,25.51
2022-08-22T18:52:26.555Z,25.53
2022-08-22T18:55:11.815Z,25.59
2022-08-22T18:58:01.441Z,25.63
2022-08-22T19:01:00.467Z,25.62
2022-08-22T19:03:41.789Z,25.60
2022-08-22T19:06:43.170Z,25.59
2022-08-22T19:09:25.474Z,25.52
2022-08-22T19:12:17.160Z,25.51
2022-08-22T19:15:17.289Z,25.45
2022-08-22T19:17:59.529Z,25.41
2022-08-22T19:20:54.639Z,25.38
2022-08-22T19:23:34.050Z,25.35
2022-08-22T19:26:31.518Z,25.32
2022-08-22T19:29:01.327Z,25.35
2022-08-22T19:31:41.301Z,25.36
2022-08-22T19:34:28.335Z,25.36
2022-08-22T19:37:32.049Z,25.34
2022-08-22T19:40:10.338Z,25.32
2022-08-22T19:42:44.246Z,25.32
2022-08-22T19:45:29.131Z,25.35
2022-08-22T19:48:14.146Z,25.33
2022-08-22T19:50:43.310Z,25.31
2022-08-22T19:53:16.109Z,25.34
2022-08-22T19:55:58.025Z,25.35
2022-08-22T19:58:52.465Z,25.34
2022-08-22T20:01:48.820Z,25.28
2022-08-22T20:04:20.795Z,25.30
2022-08-22T20:07:24.307Z,25.21
2022-08-22T20:09:54.001Z,25.23
2022-08-22T20:12:54.585Z,25.23
2022-08-22T20:15:27.318Z,25.18
2022-08-22T20:20:58.439Z,25.05
2022-08-22T20:23:30.864Z,24.95
2022-08-22T20:25:58.684Z,24.95
2022-08-22T20:28:31.582Z,24.88
2022-08-22T20:31:00.948Z,24.87
2022-08-22T20:33:32.761Z,24.81
2022-08-22T20:36:05.257Z,24.78
2022-08-22T20:38:55.588Z,24.71
2022-08-22T20:41:33.486Z,24.63
2022-08-22T20:44:24.791Z,24.62
2022-08-22T20:47:01.952Z,24.58
2022-08-22T20:49:45.382Z,24.55
2022-08-22T20:52:34.795Z,24.54
2022-08-22T20:55:24.151Z,24.53
2022-08-22T20:58:02.630Z,24.52
2022-08-22T21:00:48.316Z,24.49
2022-08-22T21:03:24.589Z,24.48
2022-08-22T21:05:51.905Z,24.48
2022-08-22T21:08:20.031Z,24.44
2022-08-22T21:11:22.149Z,24.45
2022-08-22T21:13:49.817Z,24.45
2022-08-22T21:16:21.588Z,24.42
2022-08-22T21:18:51.088Z,24.44
2022-08-22T21:21:25.092Z,24.45
2022-08-22T21:23:55.484Z,24.42
2022-08-22T21:26:32.906Z,24.36
2022-08-22T21:29:13.486Z,24.29
2022-08-22T21:31:48.750Z,24.25
2022-08-22T21:34:41.134Z,24.16
2022-08-22T21:37:14.599Z,24.06
2022-08-22T21:39:48.404Z,24.07
2022-08-22T21:42:27.786Z,23.99
2022-08-22T21:45:06.751Z,23.93
2022-08-22T21:47:42.238Z,23.88
2022-08-22T21:50:20.904Z,23.87
2022-08-22T21:52:54.150Z,23.83
2022-08-22T21:55:30.082Z,23.78
2022-08-22T21:58:36.565Z,23.70
2022-08-22T22:01:28.358Z,23.63
2022-08-22T22:03:56.646Z,23.58
2022-08-22T22:06:23.615Z,23.54
2022-08-22T22:08:51.028Z,23.49
2022-08-22T22:11:18.302Z,23.45
2022-08-22T22:13:45.829Z,23.39
2022-08-22T22:16:13.540Z,23.38
2022-08-22T22:18:41.045Z,23.35
2022-08-22T22:21:08.896Z,23.34
2022-08-22T22:23:35.951Z,23.30
2022-08-22T22:26:05.255Z,23.29
2022-08-22T22:28:36.883Z,23.27
2022-08-22T22:31:04.745Z,23.23
2022-08-22T22:33:35.386Z,23.19
2022-08-22T22:36:09.974Z,23.19
2022-08-22T22:38:39.225Z,23.17
2022-08-22T22:41:06.474Z,23.15
2022-08-22T22:43:33.650Z,23.10
2022-08-22T22:46:00.697Z,23.14
2022-08-22T22:48:27.701Z,23.11
2022-08-22T22:50:55.315Z,23.10
2022-08-22T22:53:38.021Z,23.08
2022-08-22T22:56:09.315Z,23.06
2022-08-22T22:58:38.120Z,23.05
2022-08-22T23:01:19.466Z,23.05
2022-08-22T23:03:48.211Z,23.04
2022-08-22T23:06:18.939Z,23.03
2022-08-22T23:08:46.649Z,23.01
2022-08-22T23:11:17.033Z,22.99
2022-08-22T23:13:44.156Z,22.95
2022-08-22T23:16:16.478Z,22.94
2022-08-22T23:18:44.428Z,22.92
2022-08-22T23:21:18.910Z,22.89
2022-08-22T23:23:46.373Z,22.85
2022-08-22T23:26:14.216Z,22.83
2022-08-22T23:28:41.667Z,22.79
2022-08-22T23:31:30.215Z,22.74
2022-08-22T23:34:01.579Z,22.73
2022-08-22T23:36:29.766Z,22.72
2022-08-22T23:38:57.023Z,22.72
2022-08-22T23:41:24.069Z,22.71
2022-08-22T23:43:53.975Z,22.70
2022-08-22T23:46:23.929Z,22.68
2022-08-22T23:48:51.482Z,22.65
2022-08-22T23:51:23.187Z,22.64
2022-08-22T23:53:54.410Z,22.62
2022-08-22T23:56:31.149Z,22.59
2022-08-22T23:59:05.789Z,22.57
